createdAt,value
2023-04-17T00:00:03.803Z,7.50
2023-04-17T00:02:31.390Z,7.40
2023-04-17T00:05:01.081Z,7.40
2023-04-17T00:07:30.782Z,7.40
2023-04-17T00:09:57.787Z,7.30
2023-04-17T00:12:25.094Z,7.20
2023-04-17T00:14:54.315Z,7.20
2023-04-17T00:17:21.681Z,7.10
2023-04-17T00:19:48.794Z,7.20
2023-04-17T00:22:16.097Z,7.20
2023-04-17T00:24:43.115Z,7.20
2023-04-17T00:27:12.631Z,7.20
2023-04-17T00:29:39.653Z,7.20
2023-04-17T00:32:07.108Z,7.20
2023-04-17T00:34:36.420Z,7.10
2023-04-17T00:37:05.975Z,7.10
2023-04-17T00:39:35.430Z,7.10
2023-04-17T00:42:05.060Z,7.00
2023-04-17T00:44:32.076Z,7.00
2023-04-17T00:46:59.502Z,7.00
2023-04-17T00:49:27.383Z,6.90
2023-04-17T00:51:54.986Z,6.90
2023-04-17T00:54:26.221Z,6.80
2023-04-17T00:56:55.768Z,6.80
2023-04-17T00:59:23.727Z,6.80
2023-04-17T01:01:51.112Z,6.80
2023-04-17T01:04:18.352Z,6.70
2023-04-17T01:06:47.989Z,6.70
2023-04-17T01:09:17.577Z,6.70
2023-04-17T01:11:47.357Z,6.60
2023-04-17T01:14:15.268Z,6.60
2023-04-17T01:16:42.601Z,6.60
2023-04-17T01:19:14.581Z,6.60
2023-04-17T01:21:44.405Z,6.60
2023-04-17T01:24:13.669Z,6.70
2023-04-17T01:26:41.302Z,6.70
2023-04-17T01:29:08.324Z,6.70
2023-04-17T01:31:35.634Z,6.70
2023-04-17T01:34:07.306Z,6.70
2023-04-17T01:36:34.694Z,6.80
2023-04-17T01:39:01.803Z,6.80
2023-04-17T01:41:31.658Z,6.80
2023-04-17T01:43:58.841Z,6.90
2023-04-17T01:46:26.160Z,6.90
2023-04-17T01:48:55.518Z,6.90
2023-04-17T01:51:22.870Z,6.90
2023-04-17T01:53:49.881Z,7.00
2023-04-17T01:56:19.632Z,6.90
2023-04-17T01:58:46.634Z,6.80
2023-04-17T02:01:16.148Z,6.70
2023-04-17T02:03:43.372Z,6.70
2023-04-17T02:06:13.330Z,6.70
2023-04-17T02:08:43.721Z,6.70
2023-04-17T02:11:11.075Z,6.70
2023-04-17T02:13:40.308Z,6.70
2023-04-17T02:16:07.924Z,6.70
2023-04-17T02:18:35.095Z,6.80
2023-04-17T02:21:02.400Z,6.70
2023-04-17T02:23:34.203Z,6.70
2023-04-17T02:26:01.561Z,6.70
2023-04-17T02:28:28.670Z,6.70
2023-04-17T02:30:58.940Z,6.70
2023-04-17T02:33:26.078Z,6.70
2023-04-17T02:35:53.419Z,6.70
2023-04-17T02:38:20.389Z,6.60
2023-04-17T02:40:50.148Z,6.60
2023-04-17T02:43:17.187Z,6.70
2023-04-17T02:45:44.476Z,6.70
2023-04-17T02:48:11.526Z,6.70
2023-04-17T02:50:41.674Z,6.70
2023-04-17T02:53:08.693Z,6.80
2023-04-17T02:55:36.182Z,6.80
2023-04-17T02:58:03.286Z,6.80
2023-04-17T03:03:27.801Z,6.90
2023-04-17T03:05:55.322Z,7.00
2023-04-17T03:08:24.795Z,7.10
2023-04-17T03:10:52.109Z,7.20
2023-04-17T03:13:19.131Z,7.20
2023-04-17T03:15:54.261Z,7.30
2023-04-17T03:18:21.264Z,7.30
2023-04-17T03:20:48.560Z,7.40
2023-04-17T03:23:15.550Z,7.40
2023-04-17T03:25:45.493Z,7.50
2023-04-17T03:28:14.968Z,7.50
2023-04-17T03:30:42.314Z,7.50
2023-04-17T03:33:09.299Z,7.60
2023-04-17T03:35:36.611Z,7.60
2023-04-17T03:38:03.620Z,7.70
2023-04-17T03:40:33.175Z,7.70
2023-04-17T03:43:03.871Z,7.70
2023-04-17T03:45:31.195Z,7.70
2023-04-17T03:47:58.232Z,7.70
2023-04-17T03:50:25.600Z,7.70
2023-04-17T03:52:55.207Z,7.80
2023-04-17T03:55:22.638Z,7.90
2023-04-17T03:57:52.150Z,7.90
2023-04-17T04:00:22.064Z,7.90
2023-04-17T04:02:49.347Z,7.90
2023-04-17T04:05:16.990Z,7.90
2023-04-17T04:07:44.073Z,7.90
2023-04-17T04:10:11.439Z,7.90
2023-04-17T04:12:38.426Z,8.00
2023-04-17T04:15:06.353Z,7.90
2023-04-17T04:17:33.393Z,8.00
2023-04-17T04:20:00.786Z,8.00
2023-04-17T04:22:30.045Z,8.00
2023-04-17T04:24:59.860Z,8.10
2023-04-17T04:27:29.081Z,8.10
2023-04-17T04:29:56.400Z,8.20
2023-04-17T04:32:25.904Z,8.20
2023-04-17T04:34:53.793Z,8.30
2023-04-17T04:37:23.099Z,8.30
2023-04-17T04:39:50.371Z,8.40
2023-04-17T04:42:17.367Z,8.60
2023-04-17T04:44:44.662Z,8.70
2023-04-17T04:47:11.680Z,8.80
2023-04-17T04:49:41.454Z,9.00
2023-04-17T04:52:11.054Z,9.10
2023-04-17T04:54:38.372Z,9.10
2023-04-17T04:57:05.435Z,9.00
2023-04-17T04:59:32.748Z,9.00
2023-04-17T05:02:02.195Z,9.00
2023-04-17T05:04:29.762Z,8.90
2023-04-17T05:06:56.896Z,8.90
2023-04-17T05:09:26.730Z,8.80
2023-04-17T05:11:53.767Z,8.80
2023-04-17T05:14:21.092Z,8.90
2023-04-17T05:16:48.167Z,8.90
2023-04-17T05:19:15.930Z,8.90
2023-04-17T05:21:45.253Z,8.90
2023-04-17T05:24:12.589Z,9.00
2023-04-17T05:26:39.613Z,9.00
2023-04-17T05:29:06.951Z,9.10
2023-04-17T05:31:34.019Z,9.20
2023-04-17T05:34:01.518Z,9.30
2023-04-17T05:36:28.527Z,9.40
2023-04-17T05:38:58.287Z,9.50
2023-04-17T05:41:29.002Z,9.60
2023-04-17T05:43:59.361Z,9.70
2023-04-17T05:46:26.483Z,9.80
2023-04-17T05:48:53.884Z,9.90
2023-04-17T05:51:23.370Z,9.90
2023-04-17T05:53:50.703Z,10.20
2023-04-17T05:56:19.994Z,10.40
2023-04-17T05:58:49.780Z,10.60
2023-04-17T06:01:19.042Z,10.80
2023-04-17T06:03:46.541Z,11.10
2023-04-17T06:06:15.931Z,11.20
2023-04-17T06:08:43.273Z,11.30
2023-04-17T06:11:12.792Z,11.20
2023-04-17T06:13:40.267Z,11.20
2023-04-17T06:16:07.345Z,11.10
2023-04-17T06:18:34.752Z,11.30
2023-04-17T06:21:01.885Z,11.60
2023-04-17T06:23:29.407Z,12.00
2023-04-17T06:25:59.201Z,12.30
2023-04-17T06:28:26.561Z,12.40
2023-04-17T06:30:53.676Z,12.30
2023-04-17T06:33:26.037Z,12.20
2023-04-17T06:35:56.280Z,12.00
2023-04-17T06:38:23.696Z,11.80
2023-04-17T06:40:52.144Z,11.50
2023-04-17T06:43:22.269Z,11.30
2023-04-17T06:45:49.411Z,11.30
2023-04-17T06:48:16.729Z,11.60
2023-04-17T06:50:46.244Z,12.20
2023-04-17T06:53:13.553Z,13.00
2023-04-17T06:55:40.576Z,13.50
2023-04-17T06:58:08.604Z,13.80
2023-04-17T07:00:38.137Z,14.00
2023-04-17T07:03:05.928Z,14.10
2023-04-17T07:05:33.126Z,14.20
2023-04-17T07:08:00.470Z,14.10
2023-04-17T07:10:27.583Z,13.90
2023-04-17T07:12:54.930Z,13.90
2023-04-17T07:15:22.035Z,13.60
2023-04-17T07:17:54.091Z,13.30
2023-04-17T07:20:21.278Z,12.90
2023-04-17T07:22:48.671Z,12.70
2023-04-17T07:25:15.972Z,12.60
2023-04-17T07:27:46.870Z,12.50
2023-04-17T07:30:16.336Z,12.40
2023-04-17T07:32:43.379Z,12.40
2023-04-17T07:35:10.770Z,12.50
2023-04-17T07:37:39.996Z,12.80
2023-04-17T07:40:08.033Z,13.30
2023-04-17T07:42:35.137Z,13.90
2023-04-17T07:45:04.814Z,14.40
2023-04-17T07:47:32.205Z,14.80
2023-04-17T07:49:59.728Z,15.20
2023-04-17T07:52:26.796Z,15.40
2023-04-17T07:54:56.683Z,15.50
2023-04-17T07:57:23.811Z,15.60
2023-04-17T07:59:51.130Z,15.70
2023-04-17T08:02:21.396Z,16.40
2023-04-17T08:04:50.149Z,16.60
2023-04-17T08:07:19.680Z,16.50
2023-04-17T08:09:47.368Z,16.30
2023-04-17T08:12:14.445Z,16.30
2023-04-17T08:14:44.359Z,16.20
2023-04-17T08:17:14.446Z,16.10
2023-04-17T08:19:41.769Z,15.90
2023-04-17T08:22:08.840Z,15.80
2023-04-17T08:24:36.146Z,15.80
2023-04-17T08:27:03.252Z,15.60
2023-04-17T08:29:30.596Z,15.20
2023-04-17T08:32:06.838Z,14.80
2023-04-17T08:34:47.155Z,14.60
2023-04-17T08:37:14.227Z,15.10
2023-04-17T08:39:54.866Z,14.90
2023-04-17T08:42:22.555Z,14.90
2023-04-17T08:44:49.930Z,14.80
2023-04-17T08:47:21.054Z,15.10
2023-04-17T08:49:48.393Z,15.40
2023-04-17T08:52:17.675Z,16.40
2023-04-17T08:54:45.127Z,16.70
2023-04-17T08:57:16.733Z,16.60
2023-04-17T08:59:44.088Z,16.60
2023-04-17T09:02:12.056Z,16.50
2023-04-17T09:04:44.304Z,16.00
2023-04-17T09:07:13.187Z,15.40
2023-04-17T09:09:52.241Z,15.00
2023-04-17T09:12:21.132Z,14.70
2023-04-17T09:14:48.575Z,14.50
2023-04-17T09:17:19.667Z,14.60
2023-04-17T09:20:06.967Z,14.70
2023-04-17T09:22:36.254Z,14.60
2023-04-17T09:25:03.919Z,14.60
2023-04-17T09:27:30.940Z,14.50
2023-04-17T09:30:03.654Z,14.60
2023-04-17T09:32:32.375Z,14.70
2023-04-17T09:35:06.057Z,15.00
2023-04-17T09:37:52.553Z,15.30
2023-04-17T09:40:22.168Z,15.30
2023-04-17T09:42:56.260Z,15.00
2023-04-17T09:45:27.937Z,14.80
2023-04-17T09:48:00.552Z,14.60
2023-04-17T09:50:32.180Z,14.70
2023-04-17T09:52:59.608Z,15.00
2023-04-17T09:55:27.524Z,15.50
2023-04-17T09:57:58.477Z,15.60
2023-04-17T10:00:29.466Z,15.40
2023-04-17T10:02:58.777Z,15.20
2023-04-17T10:05:32.088Z,15.10
2023-04-17T10:08:02.656Z,15.60
2023-04-17T10:10:31.970Z,16.20
2023-04-17T10:13:05.436Z,16.50
2023-04-17T10:15:36.160Z,16.50
2023-04-17T10:18:24.112Z,16.30
2023-04-17T10:20:56.923Z,16.30
2023-04-17T10:23:31.458Z,16.20
2023-04-17T10:26:26.517Z,16.00
2023-04-17T10:28:57.069Z,15.90
2023-04-17T10:32:03.305Z,16.50
2023-04-17T10:34:41.901Z,17.20
2023-04-17T10:37:13.700Z,17.40
2023-04-17T10:39:56.654Z,17.50
2023-04-17T10:42:24.377Z,17.20
2023-04-17T10:44:56.866Z,17.00
2023-04-17T10:47:34.256Z,17.30
2023-04-17T10:50:08.429Z,17.60
2023-04-17T10:52:36.734Z,17.90
2023-04-17T10:55:20.055Z,18.10
2023-04-17T10:58:02.061Z,17.90
2023-04-17T11:00:36.985Z,17.50
2023-04-17T11:03:06.579Z,17.30
2023-04-17T11:05:35.225Z,17.20
2023-04-17T11:08:03.723Z,16.90
2023-04-17T11:10:35.077Z,16.50
2023-04-17T11:13:02.454Z,16.30
2023-04-17T11:15:34.210Z,16.30
2023-04-17T11:18:03.131Z,16.60
2023-04-17T11:20:32.278Z,17.00
2023-04-17T11:23:06.273Z,17.10
2023-04-17T11:25:34.643Z,17.30
2023-04-17T11:28:06.676Z,17.10
2023-04-17T11:30:37.832Z,16.90
2023-04-17T11:33:07.077Z,16.70
2023-04-17T11:35:38.418Z,16.70
2023-04-17T11:38:20.087Z,16.90
2023-04-17T11:40:51.591Z,17.40
2023-04-17T11:43:23.265Z,17.80
2023-04-17T11:45:54.616Z,18.10
2023-04-17T11:48:25.842Z,18.10
2023-04-17T11:51:00.386Z,17.70
2023-04-17T11:53:27.957Z,17.30
2023-04-17T11:56:18.783Z,17.00
2023-04-17T11:58:53.464Z,16.80
2023-04-17T12:01:25.235Z,16.70
2023-04-17T12:03:57.534Z,16.60
2023-04-17T12:06:35.213Z,16.60
2023-04-17T12:09:02.659Z,16.70
2023-04-17T12:11:34.081Z,16.70
2023-04-17T12:14:03.126Z,16.60
2023-04-17T12:16:30.309Z,16.60
2023-04-17T12:19:00.221Z,16.50
2023-04-17T12:21:27.319Z,16.40
2023-04-17T12:23:54.674Z,16.40
2023-04-17T12:26:21.738Z,16.60
2023-04-17T12:28:49.054Z,16.80
2023-04-17T12:31:16.144Z,16.70
2023-04-17T12:33:45.759Z,16.60
2023-04-17T12:36:12.985Z,16.30
2023-04-17T12:38:40.314Z,15.80
2023-04-17T12:41:07.414Z,15.30
2023-04-17T12:43:34.821Z,15.00
2023-04-17T12:46:02.409Z,14.70
2023-04-17T12:48:32.747Z,14.60
2023-04-17T12:51:02.541Z,14.60
2023-04-17T12:53:32.159Z,14.70
2023-04-17T12:55:59.580Z,14.90
2023-04-17T12:58:26.988Z,15.00
2023-04-17T13:00:54.128Z,15.10
2023-04-17T13:03:24.162Z,15.30
2023-04-17T13:05:51.493Z,15.40
2023-04-17T13:08:19.326Z,15.40
2023-04-17T13:10:46.380Z,15.20
2023-04-17T13:13:13.830Z,15.00
2023-04-17T13:15:40.849Z,14.80
2023-04-17T13:18:16.313Z,14.60
2023-04-17T13:20:43.375Z,14.50
2023-04-17T13:23:12.970Z,14.40
2023-04-17T13:25:40.184Z,14.20
2023-04-17T13:28:07.557Z,14.00
2023-04-17T13:30:34.747Z,13.80
2023-04-17T13:33:02.304Z,13.70
2023-04-17T13:35:29.666Z,13.60
2023-04-17T13:37:57.002Z,13.70
2023-04-17T13:40:24.000Z,13.70
2023-04-17T13:42:51.476Z,13.80
2023-04-17T13:45:18.592Z,13.80
2023-04-17T13:47:46.038Z,13.80
2023-04-17T13:50:13.151Z,13.80
2023-04-17T13:52:40.517Z,13.90
2023-04-17T13:55:08.280Z,13.90
2023-04-17T13:57:35.768Z,14.00
2023-04-17T14:00:05.442Z,14.00
2023-04-17T14:02:35.483Z,14.10
2023-04-17T14:05:02.867Z,14.00
2023-04-17T14:07:32.734Z,14.00
2023-04-17T14:09:59.928Z,14.00
2023-04-17T14:12:27.287Z,13.90
2023-04-17T14:14:58.223Z,13.90
2023-04-17T14:17:28.296Z,13.90
2023-04-17T14:19:55.363Z,13.90
2023-04-17T14:22:25.256Z,14.00
2023-04-17T14:24:52.273Z,14.00
2023-04-17T14:27:19.640Z,14.10
2023-04-17T14:29:46.693Z,14.00
2023-04-17T14:32:14.182Z,14.00
2023-04-17T14:34:41.287Z,14.00
2023-04-17T14:37:08.848Z,14.10
2023-04-17T14:39:35.903Z,14.30
2023-04-17T14:42:07.701Z,14.50
2023-04-17T14:44:39.419Z,14.70
2023-04-17T14:47:09.046Z,14.70
2023-04-17T14:49:36.589Z,14.80
2023-04-17T14:52:08.604Z,14.90
2023-04-17T14:54:37.963Z,14.90
2023-04-17T14:57:05.371Z,15.00
2023-04-17T14:59:32.511Z,15.00
2023-04-17T15:02:02.437Z,15.00
2023-04-17T15:04:32.204Z,14.90
2023-04-17T15:06:59.803Z,14.80
2023-04-17T15:09:26.891Z,14.80
2023-04-17T15:11:54.246Z,14.80
2023-04-17T15:14:23.726Z,14.70
2023-04-17T15:16:51.098Z,14.60
2023-04-17T15:19:20.552Z,14.60
2023-04-17T15:21:50.117Z,14.50
2023-04-17T17:04:39.081Z,11.60
2023-04-17T17:07:11.098Z,11.50
2023-04-17T17:09:41.423Z,11.50
2023-04-17T17:12:10.888Z,11.50
2023-04-17T17:14:40.425Z,11.40
2023-04-17T17:17:07.496Z,11.40
2023-04-17T17:19:35.038Z,11.30
2023-04-17T17:22:02.257Z,11.30
2023-04-17T17:24:29.588Z,11.30
2023-04-17T17:26:59.128Z,11.30
2023-04-17T17:29:26.460Z,11.20
2023-04-17T17:31:56.069Z,11.20
2023-04-17T17:34:26.571Z,11.20
2023-04-17T17:36:56.560Z,11.20
2023-04-17T17:39:23.945Z,11.10
2023-04-17T17:41:51.023Z,11.10
2023-04-17T17:44:23.082Z,11.10
2023-04-17T17:46:52.336Z,11.10
2023-04-17T17:49:19.622Z,11.10
2023-04-17T17:51:46.810Z,11.10
2023-04-17T17:54:14.463Z,11.10
2023-04-17T17:56:41.746Z,11.10
2023-04-17T17:59:09.140Z,11.10
2023-04-17T18:01:38.482Z,11.10
2023-04-17T18:04:06.186Z,11.00
2023-04-17T18:06:35.599Z,11.00
2023-04-17T18:09:02.947Z,11.00
2023-04-17T18:11:29.965Z,11.00
2023-04-17T18:13:57.299Z,11.00
2023-04-17T18:16:24.340Z,11.00
2023-04-17T18:18:51.718Z,11.00
2023-04-17T18:21:18.752Z,11.00
2023-04-17T18:23:50.717Z,10.90
2023-04-17T18:26:17.800Z,10.90
2023-04-17T18:28:47.425Z,10.90
2023-04-17T18:31:15.190Z,10.90
2023-04-17T18:33:42.698Z,10.90
2023-04-17T18:36:09.985Z,10.90
2023-04-17T18:38:45.294Z,10.90
2023-04-17T18:41:14.957Z,10.80
2023-04-17T18:43:42.387Z,10.80
2023-04-17T18:46:09.451Z,10.80
2023-04-17T18:48:41.524Z,10.80
2023-04-17T18:51:12.794Z,10.70
2023-04-17T18:53:47.930Z,10.70
2023-04-17T18:56:15.127Z,10.70
2023-04-17T18:58:42.993Z,10.70
2023-04-17T19:01:21.857Z,10.70
2023-04-17T19:03:50.658Z,10.70
2023-04-17T19:06:35.067Z,10.70
2023-04-17T19:09:20.363Z,10.60
2023-04-17T19:11:56.965Z,10.60
2023-04-17T19:14:24.464Z,10.60
2023-04-17T19:16:53.682Z,10.60
2023-04-17T19:19:21.099Z,10.60
2023-04-17T19:21:55.770Z,10.60
2023-04-17T19:24:26.148Z,10.50
2023-04-17T19:26:53.241Z,10.50
2023-04-17T19:29:22.830Z,10.50
2023-04-17T19:42:06.639Z,10.40
2023-04-17T19:44:33.876Z,10.30
2023-04-17T19:47:01.264Z,10.20
2023-04-17T19:49:33.044Z,10.20
2023-04-17T19:52:00.473Z,10.20
2023-04-17T19:54:27.666Z,10.20
2023-04-17T19:56:57.516Z,10.10
2023-04-17T19:59:27.070Z,10.10
2023-04-17T20:01:54.555Z,10.10
2023-04-17T20:04:21.804Z,10.10
2023-04-17T20:06:51.739Z,10.00
2023-04-17T20:09:18.961Z,10.10
2023-04-17T20:11:46.433Z,10.10
2023-04-17T20:14:13.436Z,10.10
2023-04-17T20:16:41.121Z,10.10
2023-04-17T20:19:10.950Z,10.10
2023-04-17T20:21:38.515Z,10.00
2023-04-17T20:24:05.803Z,10.00
2023-04-17T20:26:37.285Z,10.00
2023-04-17T20:29:04.804Z,10.00
2023-04-17T20:31:32.258Z,10.00
2023-04-17T20:33:59.545Z,10.00
2023-04-17T20:36:27.029Z,10.00
2023-04-17T20:38:54.081Z,10.00
2023-04-17T20:41:21.460Z,10.00
2023-04-17T20:44:01.299Z,10.00
2023-04-17T20:46:29.427Z,10.00
2023-04-17T20:49:02.693Z,10.00
2023-04-17T20:51:32.315Z,10.10
2023-04-17T20:54:11.815Z,10.00
2023-04-17T20:56:50.352Z,10.00
2023-04-17T20:59:17.542Z,9.90
2023-04-17T21:01:44.965Z,9.90
2023-04-17T21:04:15.130Z,9.90
2023-04-17T21:06:42.651Z,9.90
2023-04-17T21:09:09.726Z,9.90
2023-04-17T21:11:39.950Z,9.90
2023-04-17T21:14:14.699Z,9.90
2023-04-17T21:16:42.386Z,9.90
2023-04-17T21:19:11.975Z,9.90
2023-04-17T21:21:39.288Z,10.00
2023-04-17T21:24:06.535Z,9.90
2023-04-17T21:26:37.096Z,9.90
2023-04-17T21:29:06.364Z,9.90
2023-04-17T21:31:33.778Z,9.90
2023-04-17T21:34:00.868Z,10.00
2023-04-17T21:36:32.784Z,10.10
2023-04-17T21:39:01.991Z,10.30
2023-04-17T21:41:29.316Z,10.50
2023-04-17T21:43:56.407Z,10.70
2023-04-17T21:46:26.254Z,10.70
2023-04-17T21:48:53.341Z,10.60
2023-04-17T21:51:20.668Z,10.40
2023-04-17T21:53:47.781Z,10.20
2023-04-17T21:56:17.442Z,10.10
2023-04-17T21:58:44.555Z,9.90
2023-04-17T22:01:14.226Z,9.80
2023-04-17T22:03:43.731Z,9.70
2023-04-17T22:06:11.035Z,9.70
2023-04-17T22:08:40.314Z,9.60
2023-04-17T22:11:07.993Z,9.60
2023-04-17T22:13:35.065Z,9.50
2023-04-17T22:16:03.040Z,9.50
2023-04-17T22:18:30.384Z,9.40
2023-04-17T22:20:57.685Z,9.30
2023-04-17T22:23:24.752Z,9.30
2023-04-17T22:25:52.064Z,9.30
2023-04-17T22:28:19.159Z,9.30
2023-04-17T22:30:50.244Z,9.30
2023-04-17T22:33:21.836Z,9.20
2023-04-17T22:35:50.237Z,9.20
2023-04-17T22:38:19.886Z,9.20
2023-04-17T22:44:28.677Z,9.20
2023-04-17T22:46:55.965Z,9.20
2023-04-17T22:49:25.356Z,9.20
2023-04-17T22:51:52.870Z,9.20
2023-04-17T22:54:23.167Z,9.20
2023-04-17T22:56:50.888Z,9.20
2023-04-17T22:59:20.472Z,9.10
2023-04-17T23:01:50.008Z,9.10
2023-04-17T23:04:20.716Z,9.10
2023-04-17T23:06:50.562Z,9.10
2023-04-17T23:09:36.150Z,9.10
2023-04-17T23:12:03.534Z,9.20
2023-04-17T23:14:33.031Z,9.20
2023-04-17T23:17:03.161Z,9.20
2023-04-17T23:19:32.752Z,9.20
2023-04-17T23:22:02.563Z,9.20
2023-04-17T23:24:33.200Z,9.30
2023-04-17T23:27:01.023Z,9.20
2023-04-17T23:29:28.843Z,9.20
2023-04-17T23:31:56.168Z,9.20
2023-04-17T23:34:23.223Z,9.20
2023-04-17T23:36:52.734Z,9.20
2023-04-17T23:39:19.780Z,9.30
2023-04-17T23:41:49.308Z,9.30
2023-04-17T23:44:18.812Z,9.20
2023-04-17T23:46:48.720Z,9.30
2023-04-17T23:49:15.760Z,9.20
2023-04-17T23:51:47.509Z,9.20
2023-04-17T23:54:14.818Z,9.10
2023-04-17T23:56:42.415Z,9.10
2023-04-17T23:59:11.761Z,9.10
